Time;durP1;ratioP1;P1;durP2;ratioP2;P2;SDS_P1;SDS_P2;PMS_P1;PMS_P2;Temp;Humidity;BMP_temperature;BMP_pressure;BME280_temperature;BME280_humidity;BME280_pressure;Samples;Min_cycle;Max_cycle;Signal;HPM_P1;HPM_P2
2021/05/29 00:01:51;;;;;;;0.45;0.45;;;;;;;16.49;51.40;101137.03;6253480;22;20019;-78
2021/05/29 00:04:17;;;;;;;0.70;0.70;;;;;;;16.49;51.34;101142.53;6305803;22;20026;-77
2021/05/29 00:06:42;;;;;;;0.50;0.50;;;;;;;16.48;51.97;101146.41;6277951;22;20003;-77
2021/05/29 00:09:17;;;;;;;0.40;0.40;;;;;;;16.53;51.86;101148.31;6276253;22;20077;-76
2021/05/29 00:11:52;;;;;;;;;;;;;;;;;;;;;
2021/05/29 00:14:18;;;;;;;0.20;0.20;;;;;;;16.54;51.75;101134.22;6300415;22;20086;-76
2021/05/29 00:16:44;;;;;;;0.20;0.20;;;;;;;16.58;52.22;101135.28;6296751;22;20026;-76
2021/05/29 00:19:09;;;;;;;0.63;0.20;;;;;;;16.57;52.10;101132.81;6252742;22;20023;-77
2021/05/29 00:21:35;;;;;;;0.30;0.30;;;;;;;16.49;52.48;101117.69;6308051;22;20007;-81
2021/05/29 00:24:03;;;;;;;0.30;0.30;;;;;;;16.56;52.55;101118.19;6269441;22;20007;-75
2021/05/29 00:26:31;;;;;;;0.50;0.43;;;;;;;16.60;52.84;101139.69;6310443;22;20062;-77
2021/05/29 00:28:57;;;;;;;0.50;0.50;;;;;;;16.47;52.69;101128.22;6277895;22;20096;-75
2021/05/29 00:31:22;;;;;;;0.35;0.35;;;;;;;16.58;53.34;101142.75;6304093;22;20000;-75
2021/05/29 00:33:48;;;;;;;0.88;0.88;;;;;;;16.57;53.53;101141.94;6301107;22;20329;-74
2021/05/29 00:36:15;;;;;;;1.00;1.00;;;;;;;16.49;53.69;101123.22;6279039;22;20087;-77
2021/05/29 00:38:49;;;;;;;1.10;1.00;;;;;;;16.54;53.52;101134.22;6302852;22;19999;-73
2021/05/29 00:41:17;;;;;;;0.45;0.45;;;;;;;16.55;53.89;101135.84;6304497;22;20003;-75
2021/05/29 00:43:46;;;;;;;0.90;0.90;;;;;;;16.44;53.78;101126.03;6268104;22;20007;-75
2021/05/29 00:46:14;;;;;;;0.60;0.60;;;;;;;16.55;54.14;101144.13;6281141;22;20008;-76
2021/05/29 00:48:47;;;;;;;0.52;0.52;;;;;;;16.45;54.02;101130.41;6276779;22;20326;-76
2021/05/29 00:51:15;;;;;;;0.35;0.35;;;;;;;16.48;54.37;101138.13;6249700;22;20061;-76
2021/05/29 00:53:41;;;;;;;0.30;0.30;;;;;;;16.46;54.49;101131.28;6280575;22;20042;-76
2021/05/29 00:56:07;;;;;;;0.40;0.40;;;;;;;16.46;54.40;101131.28;6308678;22;19999;-79
2021/05/29 00:58:33;;;;;;;0.68;0.50;;;;;;;16.51;54.26;101134.78;6251033;22;20004;-75
2021/05/29 01:01:06;;;;;;;0.32;0.32;;;;;;;16.46;54.08;101120.22;6308096;22;20045;-79
2021/05/29 01:03:37;;;;;;;0.40;0.40;;;;;;;16.51;54.44;101128.44;6257424;22;20023;-79
2021/05/29 01:06:18;;;;;;;0.60;0.60;;;;;;;16.39;54.96;101110.31;6311205;22;20599;-76
2021/05/29 01:08:53;;;;;;;0.38;0.38;;;;;;;16.46;54.85;101121.03;6283633;22;20069;-77
2021/05/29 01:11:19;;;;;;;0.70;0.70;;;;;;;16.49;54.90;101125.97;6281072;22;20014;-76
2021/05/29 01:13:44;;;;;;;1.85;0.80;;;;;;;16.48;55.51;101126.28;6283183;22;20101;-79
2021/05/29 01:16:18;;;;;;;1.13;1.10;;;;;;;16.39;55.43;101115.84;6282971;22;20034;-78
2021/05/29 01:18:46;;;;;;;1.58;1.48;;;;;;;16.37;55.40;101106.22;6255589;22;20471;-78
2021/05/29 01:21:12;;;;;;;1.38;1.27;;;;;;;16.43;55.50;101126.28;6281859;22;20014;-77
2021/05/29 01:23:37;;;;;;;1.38;1.38;;;;;;;16.32;55.86;101122.81;6308497;22;20422;-75
2021/05/29 01:26:03;;;;;;;1.38;1.23;;;;;;;16.34;55.73;101126.94;6251414;22;20681;-75
2021/05/29 01:28:30;;;;;;;1.20;1.17;;;;;;;16.37;56.33;101131.88;6280589;22;20007;-75
2021/05/29 01:31:09;;;;;;;0.95;0.95;;;;;;;16.31;55.98;101129.44;6252955;22;20056;-76
2021/05/29 01:33:36;;;;;;;1.27;1.27;;;;;;;16.29;56.49;101126.16;6282677;22;20007;-76
2021/05/29 01:36:08;;;;;;;0.93;0.93;;;;;;;16.21;56.70;101117.38;6253271;22;20003;-76
2021/05/29 01:38:38;;;;;;;1.10;1.10;;;;;;;16.40;56.30;101139.56;6286859;22;20003;-77
2021/05/29 01:41:09;;;;;;;0.80;0.63;;;;;;;16.30;56.37;101130.56;6277686;22;20333;-77
2021/05/29 01:43:37;;;;;;;0.55;0.55;;;;;;;16.35;56.65;101136.03;6282591;22;20007;-76
2021/05/29 01:46:05;;;;;;;0.93;0.93;;;;;;;16.38;56.50;101150.09;6302478;22;20041;-76
2021/05/29 01:48:38;;;;;;;0.65;0.65;;;;;;;16.29;56.43;101137.19;6311371;22;20008;-76
2021/05/29 01:51:10;;;;;;;0.47;0.47;;;;;;;16.33;56.83;101150.13;6309005;22;20688;-76
2021/05/29 01:53:43;;;;;;;1.20;1.20;;;;;;;16.34;57.10;101150.94;6310348;22;20011;-75
2021/05/29 01:56:12;;;;;;;1.80;1.73;;;;;;;16.19;57.13;101138.91;6305576;22;20007;-80
2021/05/29 01:58:39;;;;;;;1.20;1.20;;;;;;;16.25;57.31;101152.66;6308939;22;20003;-77
2021/05/29 02:01:08;;;;;;;1.73;1.38;;;;;;;16.09;57.25;101143.66;6281509;22;20034;-74
2021/05/29 02:03:36;;;;;;;1.90;1.80;;;;;;;16.08;57.12;101142.84;6278979;22;20010;-75
2021/05/29 02:06:02;;;;;;;1.10;1.10;;;;;;;16.16;57.97;101156.00;6308245;22;20063;-75
2021/05/29 02:08:28;;;;;;;0.80;0.80;;;;;;;16.13;57.66;101145.56;6279559;22;20010;-76
2021/05/29 02:10:54;;;;;;;1.90;1.80;;;;;;;16.05;58.10;101141.47;6278918;22;20007;-74
2021/05/29 02:13:26;;;;;;;2.08;1.98;;;;;;;16.02;57.82;101139.28;6276033;22;20026;-76
2021/05/29 02:15:55;;;;;;;2.42;2.33;;;;;;;16.05;58.13;101152.50;6308803;22;20078;-74
2021/05/29 02:18:21;;;;;;;2.15;2.05;;;;;;;16.03;57.97;101156.66;6281311;22;20425;-75
2021/05/29 02:20:48;;;;;;;2.28;2.17;;;;;;;16.05;58.01;101159.97;6229417;22;20037;-76
2021/05/29 02:23:19;;;;;;;2.80;2.60;;;;;;;15.95;58.18;101149.00;6309321;22;20338;-75
2021/05/29 02:25:53;;;;;;;2.17;2.08;;;;;;;16.01;58.47;101164.41;6273354;22;20007;-76
2021/05/29 02:28:19;;;;;;;2.40;2.30;;;;;;;15.91;58.80;101156.19;6278826;22;20003;-76
2021/05/29 02:30:45;;;;;;;2.47;2.35;;;;;;;15.94;59.08;101158.38;6278142;22;20026;-75
2021/05/29 02:33:13;;;;;;;2.00;1.90;;;;;;;15.91;58.87;101164.47;6303564;22;20477;-75
2021/05/29 02:35:40;;;;;;;1.80;1.70;;;;;;;15.84;58.76;101149.06;6299759;22;20428;-73
2021/05/29 02:38:06;;;;;;;2.55;2.45;;;;;;;15.86;59.01;101157.84;6275887;22;20013;-74
2021/05/29 02:40:32;;;;;;;3.15;3.05;;;;;;;15.99;59.25;101166.59;6303406;22;20638;-74
2021/05/29 02:43:00;;;;;;;3.00;2.90;;;;;;;15.99;58.89;101174.88;6303590;22;20129;-73
2021/05/29 02:45:26;;;;;;;3.45;3.33;;;;;;;15.87;59.20;101154.00;6305438;22;20003;-77
2021/05/29 02:47:53;;;;;;;2.88;2.67;;;;;;;15.83;58.96;101152.91;6300222;22;20056;-79
2021/05/29 02:50:21;;;;;;;3.03;2.92;;;;;;;15.85;59.33;101156.19;6251226;22;20098;-77
2021/05/29 02:52:49;;;;;;;3.28;3.13;;;;;;;15.84;59.68;101153.72;6280503;22;20057;-76
2021/05/29 02:55:22;;;;;;;3.17;3.00;;;;;;;15.77;59.79;101144.91;6302920;22;20034;-78
2021/05/29 02:57:54;;;;;;;3.08;2.92;;;;;;;15.77;59.27;101158.69;6301959;22;19999;-79
2021/05/29 03:00:22;;;;;;;1.52;1.42;;;;;;;15.74;59.62;101146.31;6305119;22;20013;-79
2021/05/29 03:02:47;;;;;;;1.00;1.00;;;;;;;15.80;59.93;101159.00;6277664;22;20015;-78
2021/05/29 03:05:13;;;;;;;1.20;1.20;;;;;;;15.75;59.94;101150.69;6279950;22;20004;-78
2021/05/29 03:07:39;;;;;;;2.13;2.03;;;;;;;15.76;60.25;101149.59;6278766;22;20019;-77
2021/05/29 03:10:09;;;;;;;2.13;2.03;;;;;;;15.74;59.67;101153.75;6252574;22;20003;-76
2021/05/29 03:12:49;;;;;;;;;;;;;;;;;;;;;
2021/05/29 03:15:21;;;;;;;2.00;1.90;;;;;;;15.77;60.10;101159.53;6280520;22;20066;-77
2021/05/29 03:17:49;;;;;;;4.25;3.08;;;;;;;15.75;60.11;101161.72;6280440;22;20007;-77
2021/05/29 03:20:19;;;;;;;4.30;4.10;;;;;;;15.84;60.23;101173.03;6277191;22;20442;-77
2021/05/29 03:22:44;;;;;;;3.58;3.20;;;;;;;15.77;60.46;101169.72;6274816;22;20053;-76
2021/05/29 03:25:12;;;;;;;4.43;4.22;;;;;;;15.76;60.52;101168.91;6308248;22;20288;-77
2021/05/29 03:27:38;;;;;;;3.95;3.75;;;;;;;15.78;60.42;101177.75;6281405;22;20011;-76
2021/05/29 03:30:08;;;;;;;3.17;2.97;;;;;;;15.72;60.29;101173.34;6306350;22;19999;-78
2021/05/29 03:32:39;;;;;;;2.92;2.78;;;;;;;15.64;60.42;101160.16;6311154;22;20023;-76
2021/05/29 03:35:06;;;;;;;2.55;2.35;;;;;;;15.54;61.04;101156.31;6254290;22;20417;-76
2021/05/29 03:37:32;;;;;;;1.63;1.52;;;;;;;15.56;61.38;101163.47;6307236;22;20079;-75
2021/05/29 03:39:58;;;;;;;1.83;1.73;;;;;;;15.53;60.90;101162.91;6305602;22;20051;-76
2021/05/29 03:42:24;;;;;;;1.20;1.10;;;;;;;15.56;60.99;101175.31;6265476;22;20298;-77
2021/05/29 03:44:49;;;;;;;1.67;1.58;;;;;;;15.53;61.19;101171.19;6279957;22;20003;-77
2021/05/29 03:47:15;;;;;;;1.98;1.83;;;;;;;15.53;61.53;101173.94;6274874;22;20341;-77
2021/05/29 03:49:40;;;;;;;2.10;2.00;;;;;;;15.53;60.89;101182.22;6279287;22;20007;-77
2021/05/29 03:52:07;;;;;;;1.15;1.13;;;;;;;15.54;61.44;101181.13;6276854;22;20034;-76
2021/05/29 03:54:46;;;;;;;2.25;2.15;;;;;;;15.54;61.29;101178.38;6278559;22;20086;-77
2021/05/29 03:57:14;;;;;;;2.08;1.98;;;;;;;15.49;61.32;101175.63;6282055;22;20011;-73
2021/05/29 03:59:41;;;;;;;1.92;1.83;;;;;;;15.57;61.74;101187.19;6308218;22;20022;-73
2021/05/29 04:02:09;;;;;;;2.42;2.33;;;;;;;15.56;61.67;101191.03;6306284;22;20433;-73
2021/05/29 04:04:35;;;;;;;1.35;1.30;;;;;;;15.57;61.80;101190.75;6292292;22;20448;-73
2021/05/29 04:07:00;;;;;;;2.03;1.92;;;;;;;15.53;61.77;101182.22;6276774;22;20007;-74
2021/05/29 04:09:26;;;;;;;3.38;3.17;;;;;;;15.52;61.86;101180.59;6250337;22;20011;-74
2021/05/29 04:11:52;;;;;;;2.65;2.55;;;;;;;15.57;61.66;101187.19;6277788;22;20003;-73
2021/05/29 04:14:17;;;;;;;1.90;1.80;;;;;;;15.57;61.38;101192.72;6273476;22;19999;-75
2021/05/29 04:16:43;;;;;;;1.92;1.83;;;;;;;15.48;61.57;101178.69;6307062;22;19999;-74
2021/05/29 04:19:09;;;;;;;1.98;1.88;;;;;;;15.52;61.50;101188.84;6306654;22;20003;-73
2021/05/29 04:21:35;;;;;;;2.38;2.17;;;;;;;15.44;61.65;101183.09;6274189;22;20010;-73
2021/05/29 04:24:00;;;;;;;2.40;2.30;;;;;;;15.54;61.79;101205.13;6278354;22;20310;-74
2021/05/29 04:26:28;;;;;;;2.20;2.10;;;;;;;15.45;61.65;101193.84;6275404;22;20011;-74
2021/05/29 04:28:54;;;;;;;2.35;2.25;;;;;;;15.47;61.84;101199.88;6303903;22;20068;-73
2021/05/29 04:31:22;;;;;;;2.80;2.70;;;;;;;15.48;62.13;101201.53;6277809;22;20007;-73
2021/05/29 04:33:49;;;;;;;3.40;2.50;;;;;;;15.53;61.88;101209.78;6302121;22;20402;-72
2021/05/29 04:36:15;;;;;;;2.30;2.20;;;;;;;15.57;62.29;101218.34;6244198;22;20086;-72
2021/05/29 04:38:45;;;;;;;2.22;2.13;;;;;;;15.50;61.80;101210.34;6267867;22;20426;-73
2021/05/29 04:41:11;;;;;;;3.35;3.00;;;;;;;15.61;62.51;101227.69;6277834;22;20002;-72
2021/05/29 04:43:36;;;;;;;2.45;2.35;;;;;;;15.63;62.41;101225.47;6274047;22;20140;-72
2021/05/29 04:46:05;;;;;;;2.25;2.15;;;;;;;15.57;62.26;101220.28;6274359;22;20012;-72
2021/05/29 04:48:30;;;;;;;1.85;1.75;;;;;;;15.66;61.96;101230.41;6302304;22;20398;-73
2021/05/29 04:53:41;;;;;;;2.30;2.13;;;;;;;15.72;62.16;101228.47;6301685;22;20014;-72
2021/05/29 04:56:07;;;;;;;2.40;2.30;;;;;;;15.75;62.32;101230.66;6303411;22;20003;-73
2021/05/29 04:58:33;;;;;;;2.47;2.28;;;;;;;15.63;61.56;101205.34;6268216;22;20003;-72
2021/05/29 05:00:59;;;;;;;4.47;4.20;;;;;;;15.69;61.89;101213.31;6301867;22;20445;-73
2021/05/29 05:03:24;;;;;;;3.40;3.30;;;;;;;15.84;61.76;101222.66;6273359;22;20019;-72
2021/05/29 05:05:51;;;;;;;3.35;3.08;;;;;;;15.86;61.94;101234.25;6302369;22;20007;-73
2021/05/29 05:08:19;;;;;;;3.15;3.05;;;;;;;15.83;61.67;101219.09;6304726;22;20003;-74
2021/05/29 05:10:54;;;;;;;;;;;;;;;;;;;;;
2021/05/29 05:13:20;;;;;;;1.75;1.67;;;;;;;15.94;61.57;101224.56;6306170;22;20094;-74
2021/05/29 05:15:49;;;;;;;2.28;2.17;;;;;;;15.96;61.51;101222.34;6293893;22;20027;-72
2021/05/29 05:18:14;;;;;;;2.30;2.10;;;;;;;15.98;61.64;101231.16;6277157;22;20003;-73
2021/05/29 05:20:40;;;;;;;1.90;1.80;;;;;;;15.99;61.51;101227.28;6275299;22;20014;-73
2021/05/29 05:23:05;;;;;;;1.30;1.30;;;;;;;16.10;61.54;101228.91;6275135;22;20007;-74
2021/05/29 05:25:33;;;;;;;1.00;1.00;;;;;;;16.16;61.24;101244.31;6252459;22;20014;-73
2021/05/29 05:28:02;;;;;;;1.98;1.88;;;;;;;16.32;61.45;101247.81;6271380;22;20046;-74
2021/05/29 05:30:28;;;;;;;1.38;1.33;;;;;;;16.31;60.82;101239.81;6275420;22;20014;-73
2021/05/29 05:32:55;;;;;;;1.67;1.58;;;;;;;16.44;61.02;101247.50;6251966;22;20422;-73
2021/05/29 05:35:22;;;;;;;1.52;1.42;;;;;;;16.56;60.57;101253.47;6248231;22;20003;-72
2021/05/29 05:37:48;;;;;;;1.80;1.70;;;;;;;16.63;60.64;101247.63;6277101;22;20007;-71
2021/05/29 05:40:17;;;;;;;1.27;1.17;;;;;;;16.67;60.41;101248.69;6305153;22;20007;-74
2021/05/29 05:42:43;;;;;;;1.38;1.35;;;;;;;16.80;60.22;101249.97;6306508;22;20074;-72
2021/05/29 05:45:09;;;;;;;2.53;2.42;;;;;;;16.92;59.65;101258.78;6277339;22;20018;-73
2021/05/29 05:47:35;;;;;;;1.40;1.40;;;;;;;16.98;59.58;101259.56;6298036;22;20007;-71
2021/05/29 05:50:18;;;;;;;2.75;1.73;;;;;;;17.04;59.54;101258.41;6277380;22;20015;-73
2021/05/29 05:52:43;;;;;;;1.83;1.73;;;;;;;17.04;59.62;101249.25;6301273;22;20421;-74
2021/05/29 05:55:10;;;;;;;1.95;1.85;;;;;;;17.16;59.28;101254.44;6304702;22;20082;-73
2021/05/29 05:57:36;;;;;;;1.85;1.60;;;;;;;17.18;59.34;101244.72;6271473;22;20031;-74
2021/05/29 06:00:05;;;;;;;1.33;1.23;;;;;;;17.33;58.85;101260.31;6295763;22;20038;-75
2021/05/29 06:02:31;;;;;;;1.98;1.88;;;;;;;17.44;58.94;101258.31;6302870;22;20509;-73
2021/05/29 06:04:56;;;;;;;2.38;2.17;;;;;;;17.61;57.97;101268.91;6253130;22;20031;-73
2021/05/29 06:07:22;;;;;;;1.77;1.67;;;;;;;17.71;57.79;101276.25;6301547;22;19999;-72
2021/05/29 06:09:47;;;;;;;1.63;1.30;;;;;;;17.70;57.74;101253.31;6302216;22;19999;-72
2021/05/29 06:12:13;;;;;;;1.55;1.45;;;;;;;17.84;57.46;101281.09;6304165;22;20011;-72
2021/05/29 06:20:14;;;;;;;1.48;1.40;;;;;;;17.94;56.70;101281.00;6306663;22;20041;-73
2021/05/29 06:22:40;;;;;;;1.48;1.38;;;;;;;17.97;56.41;101279.59;6294259;22;20299;-75
2021/05/29 06:25:08;;;;;;;1.85;1.73;;;;;;;18.05;56.52;101275.38;6307270;22;20363;-75
2021/05/29 06:27:41;;;;;;;1.40;1.30;;;;;;;18.17;56.07;101284.06;6305147;22;20003;-76
2021/05/29 06:30:09;;;;;;;2.55;1.90;;;;;;;18.28;56.01;101281.97;6304913;22;20066;-76
2021/05/29 06:32:35;;;;;;;1.60;1.50;;;;;;;18.41;55.49;101283.19;6305008;22;20324;-75
2021/05/29 06:35:12;;;;;;;1.20;1.20;;;;;;;18.42;55.22;101291.19;6306480;22;19996;-75
2021/05/29 06:37:39;;;;;;;0.82;0.82;;;;;;;18.51;54.92;101280.25;6303346;22;20122;-76
2021/05/29 06:40:07;;;;;;;1.88;1.77;;;;;;;18.62;54.80;101284.53;6302382;22;20003;-73
2021/05/29 06:42:32;;;;;;;1.55;1.23;;;;;;;18.82;54.35;101296.41;6303637;22;20007;-73
2021/05/29 06:45:01;;;;;;;0.80;0.80;;;;;;;18.86;54.57;101289.19;6304018;22;20104;-73
2021/05/29 06:47:26;;;;;;;1.35;1.25;;;;;;;18.99;54.00;101293.97;6302845;22;20040;-73
2021/05/29 06:49:52;;;;;;;3.20;1.45;;;;;;;19.11;53.74;101299.03;6276437;22;20089;-72
2021/05/29 06:52:21;;;;;;;1.83;1.75;;;;;;;19.14;53.21;101284.59;6275637;22;20015;-74
2021/05/29 06:59:59;;;;;;;1.75;1.65;;;;;;;19.34;52.01;101311.13;6304959;22;20021;-72
2021/05/29 07:02:25;;;;;;;2.25;1.80;;;;;;;19.47;51.56;101311.47;6277782;22;20023;-71
2021/05/29 07:04:51;;;;;;;1.58;1.58;;;;;;;19.58;51.07;101324.03;6305722;22;20033;-76
2021/05/29 07:07:18;;;;;;;2.28;2.08;;;;;;;19.64;50.83;101313.66;6308578;22;20033;-75
2021/05/29 07:09:47;;;;;;;1.08;1.05;;;;;;;19.68;50.29;101321.09;6280091;22;20003;-74
2021/05/29 07:12:15;;;;;;;2.08;1.30;;;;;;;19.80;50.40;101333.63;6280405;22;20003;-74
2021/05/29 07:14:43;;;;;;;0.57;0.55;;;;;;;19.83;50.33;101327.47;6256064;22;20010;-71
2021/05/29 07:17:10;;;;;;;0.60;0.60;;;;;;;19.95;50.26;101325.03;6245969;22;20015;-72
2021/05/29 07:19:36;;;;;;;0.90;0.90;;;;;;;20.14;49.60;101336.03;6299279;22;20003;-73
2021/05/29 07:22:01;;;;;;;0.73;0.73;;;;;;;20.14;48.56;101332.44;6301969;22;20653;-75
2021/05/29 07:24:30;;;;;;;0.43;0.43;;;;;;;20.23;48.91;101327.81;6276652;22;20387;-73
2021/05/29 07:26:56;;;;;;;0.55;0.40;;;;;;;20.26;49.08;101318.84;6277911;22;20003;-76
2021/05/29 07:29:28;;;;;;;0.60;0.60;;;;;;;20.33;48.41;101319.25;6303975;22;20003;-73
2021/05/29 07:31:54;;;;;;;0.50;0.50;;;;;;;20.48;48.33;101325.63;6278817;22;20011;-74
2021/05/29 07:34:20;;;;;;;0.43;0.40;;;;;;;20.68;48.24;101341.88;6300912;22;20003;-74
2021/05/29 07:36:46;;;;;;;2.97;1.40;;;;;;;20.63;47.55;101339.16;6274462;22;20343;-75
2021/05/29 07:39:14;;;;;;;0.88;0.88;;;;;;;20.71;46.95;101346.78;6278585;22;19999;-73
2021/05/29 07:41:42;;;;;;;0.77;0.77;;;;;;;20.62;47.02;101334.75;6302840;22;20034;-72
2021/05/29 07:44:08;;;;;;;1.00;1.00;;;;;;;20.62;46.44;101331.97;6305429;22;20003;-72
2021/05/29 07:46:36;;;;;;;1.17;0.50;;;;;;;20.72;46.57;101359.56;6244914;22;20443;-73
2021/05/29 07:49:09;;;;;;;0.70;0.60;;;;;;;20.81;46.97;101356.03;6277317;22;20007;-74
2021/05/29 07:51:36;;;;;;;0.52;0.50;;;;;;;20.90;46.67;101359.72;6299719;22;20343;-73
2021/05/29 07:54:09;;;;;;;0.20;0.20;;;;;;;21.05;46.72;101367.69;6300623;22;20094;-74
2021/05/29 07:56:35;;;;;;;0.60;0.60;;;;;;;21.14;45.97;101364.16;6300849;22;20070;-74
2021/05/29 07:59:09;;;;;;;0.52;0.52;;;;;;;21.19;45.11;101364.06;6249355;22;20321;-74
2021/05/29 08:01:35;;;;;;;2.20;0.70;;;;;;;21.23;44.49;101362.25;6295507;22;20011;-73
2021/05/29 08:04:03;;;;;;;0.35;0.30;;;;;;;21.37;45.02;101365.81;6277337;22;20299;-73
2021/05/29 08:06:34;;;;;;;0.50;0.32;;;;;;;21.46;44.92;101349.16;6304499;22;20010;-73
2021/05/29 08:09:07;;;;;;;0.73;0.60;;;;;;;21.65;44.50;101348.97;6277534;22;20003;-75
2021/05/29 08:11:38;;;;;;;0.30;0.30;;;;;;;22.01;44.44;101370.28;6298543;22;20002;-72
2021/05/29 08:14:10;;;;;;;0.17;0.15;;;;;;;22.17;44.68;101355.97;6274810;22;20031;-74
2021/05/29 08:16:36;;;;;;;0.60;0.55;;;;;;;22.49;43.06;101371.47;6272585;22;20027;-73
2021/05/29 08:19:08;;;;;;;0.55;0.50;;;;;;;22.57;42.52;101359.50;6301310;22;20003;-72
2021/05/29 08:21:36;;;;;;;0.40;0.40;;;;;;;22.82;42.24;101374.66;6302063;22;20011;-73
2021/05/29 08:24:02;;;;;;;0.57;0.50;;;;;;;23.10;41.94;101366.00;6275392;22;20004;-74
2021/05/29 08:26:28;;;;;;;0.73;0.47;;;;;;;23.42;41.41;101366.63;6245745;22;20164;-74
2021/05/29 08:28:55;;;;;;;0.40;0.40;;;;;;;23.50;40.17;101346.25;6303200;22;20422;-74
2021/05/29 08:31:21;;;;;;;0.60;0.60;;;;;;;23.64;39.22;101364.75;6298910;22;20031;-73
2021/05/29 08:33:47;;;;;;;0.80;0.50;;;;;;;23.52;38.08;101359.84;6303996;22;20003;-73
2021/05/29 08:36:13;;;;;;;0.95;0.52;;;;;;;23.24;38.18;101360.22;6276647;22;20384;-75
2021/05/29 08:38:41;;;;;;;0.40;0.30;;;;;;;23.20;38.72;101369.59;6276017;22;20426;-75
2021/05/29 08:41:17;;;;;;;;;;;;;;;;;;;;;
2021/05/29 08:43:45;;;;;;;0.45;0.30;;;;;;;23.07;37.80;101366.63;6303769;22;20552;-74
2021/05/29 08:46:22;;;;;;;0.32;0.28;;;;;;;23.13;37.49;101372.88;6304319;22;20303;-74
2021/05/29 08:48:48;;;;;;;0.30;0.30;;;;;;;23.01;37.04;101362.34;6300894;22;20078;-74
2021/05/29 08:51:13;;;;;;;0.30;0.30;;;;;;;22.90;37.22;101373.00;6303241;22;20338;-72
2021/05/29 08:53:47;;;;;;;0.55;0.43;;;;;;;22.97;37.33;101392.06;6274673;22;20007;-73
2021/05/29 08:56:17;;;;;;;0.35;0.30;;;;;;;22.92;37.30;101375.47;6295722;22;20035;-74
2021/05/29 08:58:45;;;;;;;0.40;0.40;;;;;;;23.00;37.24;101378.25;6248893;22;20003;-74
2021/05/29 09:01:15;;;;;;;3.63;0.52;;;;;;;22.92;36.98;101386.63;6295647;22;20006;-74
2021/05/29 09:03:45;;;;;;;0.45;0.40;;;;;;;22.92;37.53;101378.25;6300822;22;20011;-72
2021/05/29 09:06:13;;;;;;;0.20;0.20;;;;;;;22.95;37.83;101385.97;6302174;22;20011;-74
2021/05/29 09:08:56;;;;;;;0.30;0.30;;;;;;;23.17;37.89;101391.44;6303637;22;20021;-73
2021/05/29 09:11:47;;;;;;;0.20;0.20;;;;;;;23.32;37.54;101403.25;6280586;22;20003;-73
2021/05/29 09:14:22;;;;;;;0.63;0.25;;;;;;;23.27;35.38;101406.19;6278184;22;20508;-73
2021/05/29 09:17:24;;;;;;;0.20;0.10;;;;;;;23.01;34.33;101391.06;6301573;22;20006;-74
2021/05/29 09:20:10;;;;;;;0.20;0.20;;;;;;;22.83;34.64;101401.38;6305810;22;20299;-74
2021/05/29 09:22:41;;;;;;;0.20;0.20;;;;;;;22.68;34.93;101410.22;6307067;22;20052;-74
2021/05/29 09:25:23;;;;;;;0.30;0.20;;;;;;;22.67;35.72;101405.78;6277457;22;20472;-74
2021/05/29 09:27:59;;;;;;;0.10;0.10;;;;;;;22.63;36.15;101397.25;6304435;22;20073;-73
2021/05/29 09:30:47;;;;;;;1.27;0.25;;;;;;;22.71;34.94;101415.13;6303322;22;20066;-74
2021/05/29 09:33:33;;;;;;;0.17;0.17;;;;;;;22.57;34.82;101400.50;6303292;22;20364;-74
2021/05/29 09:36:02;;;;;;;0.10;0.00;;;;;;;22.65;35.40;101406.09;6305450;22;20030;-74
2021/05/29 09:38:36;;;;;;;0.73;0.10;;;;;;;22.78;35.39;101404.34;6304890;22;20035;-73
2021/05/29 09:41:03;;;;;;;0.22;0.20;;;;;;;22.85;34.98;101409.41;6276604;22;20010;-73
2021/05/29 09:43:28;;;;;;;0.20;0.20;;;;;;;22.84;34.15;101391.88;6298532;22;20033;-71
2021/05/29 09:46:05;;;;;;;0.40;0.20;;;;;;;22.94;34.38;101406.63;6252657;22;20022;-71
2021/05/29 09:48:33;;;;;;;0.50;0.30;;;;;;;23.17;34.37;101404.53;6272181;22;20385;-73
2021/05/29 09:51:10;;;;;;;0.43;0.10;;;;;;;23.60;34.53;101406.50;6278027;22;20022;-74
2021/05/29 09:53:45;;;;;;;0.10;0.10;;;;;;;23.88;34.29;101401.34;6301305;22;19995;-73
2021/05/29 09:56:40;;;;;;;0.10;0.10;;;;;;;24.27;33.33;101411.72;6277263;22;20010;-73
2021/05/29 09:59:11;;;;;;;0.20;0.13;;;;;;;24.65;32.92;101416.47;6292348;22;19999;-74
2021/05/29 10:01:43;;;;;;;0.20;0.10;;;;;;;25.19;32.00;101413.81;6274697;22;20015;-74
2021/05/29 10:04:11;;;;;;;0.20;0.20;;;;;;;25.79;30.45;101424.81;6301190;22;20004;-73
2021/05/29 10:06:37;;;;;;;0.40;0.20;;;;;;;26.12;30.08;101421.16;6302157;22;20003;-73
2021/05/29 10:09:10;;;;;;;0.10;0.10;;;;;;;26.98;31.20;101412.75;6275847;22;20330;-73
2021/05/29 10:11:37;;;;;;;0.10;0.10;;;;;;;27.79;30.58;101419.44;6274581;22;20082;-74
2021/05/29 10:14:05;;;;;;;0.20;0.20;;;;;;;28.15;29.11;101417.59;6305929;22;20002;-73
2021/05/29 10:16:34;;;;;;;0.10;0.10;;;;;;;28.88;29.96;101416.16;6300523;22;20014;-73
2021/05/29 10:19:01;;;;;;;0.10;0.10;;;;;;;29.55;27.11;101432.03;6279362;22;20007;-74
2021/05/29 10:21:31;;;;;;;0.22;0.10;;;;;;;30.34;28.17;101427.03;6302525;22;20006;-74
2021/05/29 10:23:59;;;;;;;0.00;0.00;;;;;;;31.53;27.58;101427.91;6279123;22;20006;-74
2021/05/29 10:26:33;;;;;;;0.20;0.20;;;;;;;32.09;26.29;101432.53;6299692;22;20010;-73
2021/05/29 10:29:00;;;;;;;0.40;0.10;;;;;;;32.22;24.11;101440.78;6307326;22;20014;-73
2021/05/29 10:31:31;;;;;;;0.25;0.10;;;;;;;32.22;24.25;101429.47;6278015;22;20011;-73
2021/05/29 10:33:59;;;;;;;0.20;0.20;;;;;;;32.08;23.19;101425.28;6309641;22;20003;-73
2021/05/29 10:36:38;;;;;;;0.30;0.10;;;;;;;31.80;22.46;101435.09;6308705;22;20003;-74
2021/05/29 10:39:06;;;;;;;0.22;0.10;;;;;;;31.33;22.62;101436.56;6310310;22;19999;-73
2021/05/29 10:41:55;;;;;;;0.30;0.20;;;;;;;31.24;23.48;101439.69;6280824;22;20414;-74
2021/05/29 10:44:35;;;;;;;0.10;0.10;;;;;;;31.76;24.02;101441.91;6308737;22;20009;-75
2021/05/29 10:47:06;;;;;;;0.10;0.10;;;;;;;32.50;23.46;101443.00;6298008;22;20037;-74
2021/05/29 10:49:47;;;;;;;0.10;0.10;;;;;;;33.05;23.51;101447.84;6305014;22;20368;-74
2021/05/29 10:52:31;;;;;;;0.43;0.17;;;;;;;33.29;22.66;101440.66;6303313;22;20056;-74
2021/05/29 10:55:09;;;;;;;0.22;0.17;;;;;;;33.01;22.40;101444.16;6275644;22;20007;-73
2021/05/29 10:58:01;;;;;;;0.30;0.20;;;;;;;34.08;23.64;101440.06;6273231;22;20007;-74
2021/05/29 11:00:51;;;;;;;0.15;0.10;;;;;;;35.93;21.42;101447.69;6278234;22;20330;-74
2021/05/29 11:03:16;;;;;;;1.50;0.10;;;;;;;37.20;20.68;101447.31;6289911;22;20042;-72
2021/05/29 11:05:49;;;;;;;0.22;0.17;;;;;;;38.18;20.25;101447.53;6299045;22;20030;-72
2021/05/29 11:08:47;;;;;;;0.13;0.10;;;;;;;39.02;19.26;101441.94;6304886;22;19999;-73
2021/05/29 11:14:10;;;;;;;0.38;0.10;;;;;;;39.66;18.34;101443.88;6302648;22;20331;-74
2021/05/29 11:16:52;;;;;;;0.10;0.10;;;;;;;39.68;17.68;101445.03;6243140;22;20098;-74
2021/05/29 11:19:28;;;;;;;0.52;0.10;;;;;;;38.82;17.58;101435.41;6277694;22;20039;-72
2021/05/29 11:22:07;;;;;;;0.10;0.10;;;;;;;37.89;17.53;101435.78;6298816;22;19999;-72
2021/05/29 11:24:38;;;;;;;0.32;0.13;;;;;;;37.58;18.07;101432.16;6303274;22;20448;-72
2021/05/29 11:27:05;;;;;;;0.50;0.10;;;;;;;37.70;18.08;101445.81;6273328;22;20380;-73
2021/05/29 11:29:53;;;;;;;0.00;0.00;;;;;;;38.40;18.31;101445.13;6276450;22;20003;-74
2021/05/29 11:32:52;;;;;;;0.20;0.00;;;;;;;39.13;17.54;101440.94;6298884;22;20018;-71
2021/05/29 11:35:29;;;;;;;0.10;0.10;;;;;;;39.65;17.25;101447.97;6302956;22;20002;-74
2021/05/29 11:38:00;;;;;;;0.00;0.00;;;;;;;40.40;16.53;101446.13;6300502;22;20317;-72
2021/05/29 11:40:40;;;;;;;0.10;0.10;;;;;;;40.58;15.68;101447.72;6302461;22;20070;-73
2021/05/29 11:43:06;;;;;;;0.00;0.00;;;;;;;40.69;15.58;101445.38;6301379;22;20010;-73
2021/05/29 11:45:31;;;;;;;0.00;0.00;;;;;;;41.24;15.77;101456.13;6303030;22;20003;-72
2021/05/29 11:47:57;;;;;;;0.10;0.00;;;;;;;41.60;15.17;101449.31;6301895;22;20377;-72
2021/05/29 11:50:25;;;;;;;0.25;0.20;;;;;;;40.92;14.03;101457.88;6273582;22;20026;-72
2021/05/29 11:52:52;;;;;;;0.00;0.00;;;;;;;39.75;13.81;101453.47;6300523;22;20006;-72
2021/05/29 11:55:20;;;;;;;0.08;0.00;;;;;;;39.36;13.71;101448.63;6304480;22;20003;-72
2021/05/29 11:58:03;;;;;;;0.00;0.00;;;;;;;39.93;13.71;101460.81;6310977;22;20004;-73